sensor_id;sensor_type;location;lat;lon;timestamp;temperature;humidity
25250;DHT22;13201;51.148;13.738;2023-02-26T00:00:27;0.70;99.90
25250;DHT22;13201;51.148;13.738;2023-02-26T00:02:54;0.80;99.90
25250;DHT22;13201;51.148;13.738;2023-02-26T00:05:20;0.70;99.90
25250;DHT22;13201;51.148;13.738;2023-02-26T00:07:46;0.70;99.90
25250;DHT22;13201;51.148;13.738;2023-02-26T00:10:12;0.60;99.90
25250;DHT22;13201;51.148;13.738;2023-02-26T00:12:39;0.60;99.90
25250;DHT22;13201;51.148;13.738;2023-02-26T00:15:05;0.40;99.90
25250;DHT22;13201;51.148;13.738;2023-02-26T00:20:01;0.40;99.90
25250;DHT22;13201;51.148;13.738;2023-02-26T00:22:28;0.50;99.90
25250;DHT22;13201;51.148;13.738;2023-02-26T00:24:54;0.60;99.90
25250;DHT22;13201;51.148;13.738;2023-02-26T00:27:20;0.40;99.90
25250;DHT22;13201;51.148;13.738;2023-02-26T00:29:46;0.40;99.90
25250;DHT22;13201;51.148;13.738;2023-02-26T00:32:12;0.50;99.90
25250;DHT22;13201;51.148;13.738;2023-02-26T00:34:38;0.50;99.90
25250;DHT22;13201;51.148;13.738;2023-02-26T00:42:12;0.50;99.90
25250;DHT22;13201;51.148;13.738;2023-02-26T00:44:38;0.50;99.90
25250;DHT22;13201;51.148;13.738;2023-02-26T00:47:31;0.40;99.90
25250;DHT22;13201;51.148;13.738;2023-02-26T00:50:17;0.40;99.90
25250;DHT22;13201;51.148;13.738;2023-02-26T00:53:11;0.40;99.90
25250;DHT22;13201;51.148;13.738;2023-02-26T00:55:39;0.40;99.90
25250;DHT22;13201;51.148;13.738;2023-02-26T00:58:05;0.50;99.90
25250;DHT22;13201;51.148;13.738;2023-02-26T01:00:31;0.40;99.90
25250;DHT22;13201;51.148;13.738;2023-02-26T01:02:57;0.40;99.90
25250;DHT22;13201;51.148;13.738;2023-02-26T01:05:23;0.50;99.90
25250;DHT22;13201;51.148;13.738;2023-02-26T01:31:01;-0.30;99.90
25250;DHT22;13201;51.148;13.738;2023-02-26T01:33:38;-0.30;99.90
25250;DHT22;13201;51.148;13.738;2023-02-26T01:36:11;-0.20;99.90
25250;DHT22;13201;51.148;13.738;2023-02-26T01:38:50;-0.10;99.90
25250;DHT22;13201;51.148;13.738;2023-02-26T01:49:13;0.30;99.90
25250;DHT22;13201;51.148;13.738;2023-02-26T01:52:03;0.40;99.90
25250;DHT22;13201;51.148;13.738;2023-02-26T01:54:31;0.40;99.90
25250;DHT22;13201;51.148;13.738;2023-02-26T01:57:09;0.40;99.90
25250;DHT22;13201;51.148;13.738;2023-02-26T01:59:42;0.50;99.90
25250;DHT22;13201;51.148;13.738;2023-02-26T02:02:11;0.60;99.90
25250;DHT22;13201;51.148;13.738;2023-02-26T02:04:38;0.50;99.90
25250;DHT22;13201;51.148;13.738;2023-02-26T02:07:05;0.40;99.90
25250;DHT22;13201;51.148;13.738;2023-02-26T02:09:31;0.50;99.90
25250;DHT22;13201;51.148;13.738;2023-02-26T02:12:16;0.60;99.90
25250;DHT22;13201;51.148;13.738;2023-02-26T02:34:40;0.70;99.90
25250;DHT22;13201;51.148;13.738;2023-02-26T02:40:09;0.70;99.90
25250;DHT22;13201;51.148;13.738;2023-02-26T02:43:00;0.70;99.90
25250;DHT22;13201;51.148;13.738;2023-02-26T02:45:34;0.70;99.90
25250;DHT22;13201;51.148;13.738;2023-02-26T02:48:15;0.70;99.90
25250;DHT22;13201;51.148;13.738;2023-02-26T02:50:49;0.70;99.90
25250;DHT22;13201;51.148;13.738;2023-02-26T02:53:30;0.60;99.90
25250;DHT22;13201;51.148;13.738;2023-02-26T02:56:11;0.60;99.90
25250;DHT22;13201;51.148;13.738;2023-02-26T02:58:43;0.70;99.90
25250;DHT22;13201;51.148;13.738;2023-02-26T03:01:13;0.80;99.90
25250;DHT22;13201;51.148;13.738;2023-02-26T03:06:28;0.90;99.90
25250;DHT22;13201;51.148;13.738;2023-02-26T03:08:54;1.00;99.90
25250;DHT22;13201;51.148;13.738;2023-02-26T03:11:21;0.90;99.90
25250;DHT22;13201;51.148;13.738;2023-02-26T03:13:47;1.00;99.90
25250;DHT22;13201;51.148;13.738;2023-02-26T03:22:14;0.90;99.90
25250;DHT22;13201;51.148;13.738;2023-02-26T03:24:58;0.80;99.90
25250;DHT22;13201;51.148;13.738;2023-02-26T03:38:32;0.80;99.90
25250;DHT22;13201;51.148;13.738;2023-02-26T03:41:04;0.70;99.90
25250;DHT22;13201;51.148;13.738;2023-02-26T03:43:36;0.70;99.90
25250;DHT22;13201;51.148;13.738;2023-02-26T03:46:07;0.70;99.90
25250;DHT22;13201;51.148;13.738;2023-02-26T03:48:35;0.70;99.90
25250;DHT22;13201;51.148;13.738;2023-02-26T03:51:06;0.80;99.90
25250;DHT22;13201;51.148;13.738;2023-02-26T03:53:42;0.80;99.90
25250;DHT22;13201;51.148;13.738;2023-02-26T03:58:45;0.80;99.90
25250;DHT22;13201;51.148;13.738;2023-02-26T04:01:17;0.80;99.90
25250;DHT22;13201;51.148;13.738;2023-02-26T04:03:55;0.80;99.90
25250;DHT22;13201;51.148;13.738;2023-02-26T04:06:22;0.80;99.90
25250;DHT22;13201;51.148;13.738;2023-02-26T04:08:49;0.80;99.90
25250;DHT22;13201;51.148;13.738;2023-02-26T04:11:17;0.80;99.90
25250;DHT22;13201;51.148;13.738;2023-02-26T04:13:43;0.80;99.90
25250;DHT22;13201;51.148;13.738;2023-02-26T04:16:09;0.70;99.90
25250;DHT22;13201;51.148;13.738;2023-02-26T04:18:35;0.70;99.90
25250;DHT22;13201;51.148;13.738;2023-02-26T04:21:01;0.80;99.90
25250;DHT22;13201;51.148;13.738;2023-02-26T04:23:27;0.60;99.90
25250;DHT22;13201;51.148;13.738;2023-02-26T04:25:53;0.60;99.90
25250;DHT22;13201;51.148;13.738;2023-02-26T04:28:19;0.70;99.90
25250;DHT22;13201;51.148;13.738;2023-02-26T04:30:45;0.70;99.90
25250;DHT22;13201;51.148;13.738;2023-02-26T04:33:12;0.70;99.90
25250;DHT22;13201;51.148;13.738;2023-02-26T04:35:37;0.80;99.90
25250;DHT22;13201;51.148;13.738;2023-02-26T04:38:03;0.80;99.90
25250;DHT22;13201;51.148;13.738;2023-02-26T04:40:30;0.80;99.90
25250;DHT22;13201;51.148;13.738;2023-02-26T04:42:55;0.80;99.90
25250;DHT22;13201;51.148;13.738;2023-02-26T04:45:22;0.80;99.90
25250;DHT22;13201;51.148;13.738;2023-02-26T04:47:47;0.90;99.90
25250;DHT22;13201;51.148;13.738;2023-02-26T04:50:13;0.90;99.90
25250;DHT22;13201;51.148;13.738;2023-02-26T04:52:39;0.90;99.90
25250;DHT22;13201;51.148;13.738;2023-02-26T04:55:05;0.90;99.90
25250;DHT22;13201;51.148;13.738;2023-02-26T04:57:32;0.90;99.90
25250;DHT22;13201;51.148;13.738;2023-02-26T04:59:57;0.90;99.90
25250;DHT22;13201;51.148;13.738;2023-02-26T05:02:23;0.90;99.90
25250;DHT22;13201;51.148;13.738;2023-02-26T05:04:49;0.80;99.90
25250;DHT22;13201;51.148;13.738;2023-02-26T05:07:14;0.80;99.90
25250;DHT22;13201;51.148;13.738;2023-02-26T05:09:40;0.80;99.90
25250;DHT22;13201;51.148;13.738;2023-02-26T05:12:06;0.60;99.90
25250;DHT22;13201;51.148;13.738;2023-02-26T05:14:31;0.80;99.90
25250;DHT22;13201;51.148;13.738;2023-02-26T05:16:57;0.80;99.90
25250;DHT22;13201;51.148;13.738;2023-02-26T05:19:23;0.70;99.90
25250;DHT22;13201;51.148;13.738;2023-02-26T05:21:48;0.80;99.90
25250;DHT22;13201;51.148;13.738;2023-02-26T05:24:15;0.80;99.90
25250;DHT22;13201;51.148;13.738;2023-02-26T05:26:41;0.90;99.90
25250;DHT22;13201;51.148;13.738;2023-02-26T05:29:06;0.90;99.90
25250;DHT22;13201;51.148;13.738;2023-02-26T05:31:32;0.70;99.90
25250;DHT22;13201;51.148;13.738;2023-02-26T05:33:58;0.80;99.90
25250;DHT22;13201;51.148;13.738;2023-02-26T05:36:23;0.80;99.90
25250;DHT22;13201;51.148;13.738;2023-02-26T05:38:49;0.80;99.90
25250;DHT22;13201;51.148;13.738;2023-02-26T05:41:15;0.80;99.90
25250;DHT22;13201;51.148;13.738;2023-02-26T05:43:40;0.80;99.90
25250;DHT22;13201;51.148;13.738;2023-02-26T05:46:06;0.90;99.90
25250;DHT22;13201;51.148;13.738;2023-02-26T05:48:33;0.80;99.90
25250;DHT22;13201;51.148;13.738;2023-02-26T05:50:58;0.90;99.90
25250;DHT22;13201;51.148;13.738;2023-02-26T05:53:24;0.90;99.90
25250;DHT22;13201;51.148;13.738;2023-02-26T05:55:52;0.70;99.90
25250;DHT22;13201;51.148;13.738;2023-02-26T05:58:17;0.70;99.90
25250;DHT22;13201;51.148;13.738;2023-02-26T06:00:43;0.80;99.90
25250;DHT22;13201;51.148;13.738;2023-02-26T06:03:09;0.70;99.90
25250;DHT22;13201;51.148;13.738;2023-02-26T06:05:34;0.60;99.90
25250;DHT22;13201;51.148;13.738;2023-02-26T06:08:02;0.70;99.90
25250;DHT22;13201;51.148;13.738;2023-02-26T06:10:27;0.70;99.90
25250;DHT22;13201;51.148;13.738;2023-02-26T06:12:53;0.70;99.90
25250;DHT22;13201;51.148;13.738;2023-02-26T06:15:19;0.80;99.90
25250;DHT22;13201;51.148;13.738;2023-02-26T06:17:45;0.70;99.90
25250;DHT22;13201;51.148;13.738;2023-02-26T06:20:11;0.80;99.90
25250;DHT22;13201;51.148;13.738;2023-02-26T06:22:37;0.80;99.90
25250;DHT22;13201;51.148;13.738;2023-02-26T06:25:03;0.80;99.90
25250;DHT22;13201;51.148;13.738;2023-02-26T06:27:29;0.80;99.90
25250;DHT22;13201;51.148;13.738;2023-02-26T06:29:55;0.70;99.90
25250;DHT22;13201;51.148;13.738;2023-02-26T06:32:21;0.70;99.90
25250;DHT22;13201;51.148;13.738;2023-02-26T06:34:47;0.80;99.90
25250;DHT22;13201;51.148;13.738;2023-02-26T06:37:12;0.80;99.90
25250;DHT22;13201;51.148;13.738;2023-02-26T06:39:38;0.90;99.90
25250;DHT22;13201;51.148;13.738;2023-02-26T06:42:04;0.80;99.90
25250;DHT22;13201;51.148;13.738;2023-02-26T06:44:29;0.60;99.90
25250;DHT22;13201;51.148;13.738;2023-02-26T06:46:55;0.80;99.90
25250;DHT22;13201;51.148;13.738;2023-02-26T06:49:21;0.80;99.90
25250;DHT22;13201;51.148;13.738;2023-02-26T06:51:46;0.70;99.90
25250;DHT22;13201;51.148;13.738;2023-02-26T06:54:12;0.90;99.90
25250;DHT22;13201;51.148;13.738;2023-02-26T06:56:38;1.00;99.90
25250;DHT22;13201;51.148;13.738;2023-02-26T06:59:04;1.20;99.90
25250;DHT22;13201;51.148;13.738;2023-02-26T07:01:29;1.00;99.90
25250;DHT22;13201;51.148;13.738;2023-02-26T07:03:56;0.90;99.90
25250;DHT22;13201;51.148;13.738;2023-02-26T07:06:22;1.00;99.90
25250;DHT22;13201;51.148;13.738;2023-02-26T07:08:48;1.00;99.90
25250;DHT22;13201;51.148;13.738;2023-02-26T07:11:14;1.00;99.90
25250;DHT22;13201;51.148;13.738;2023-02-26T07:13:39;1.10;99.90
25250;DHT22;13201;51.148;13.738;2023-02-26T07:16:06;1.00;99.90
25250;DHT22;13201;51.148;13.738;2023-02-26T07:18:35;1.00;99.90
25250;DHT22;13201;51.148;13.738;2023-02-26T07:21:02;1.20;99.90
25250;DHT22;13201;51.148;13.738;2023-02-26T07:23:28;1.10;99.90
25250;DHT22;13201;51.148;13.738;2023-02-26T07:25:54;1.10;99.90
25250;DHT22;13201;51.148;13.738;2023-02-26T07:28:21;1.10;99.90
25250;DHT22;13201;51.148;13.738;2023-02-26T07:30:46;1.00;99.90
25250;DHT22;13201;51.148;13.738;2023-02-26T07:33:12;0.90;99.90
25250;DHT22;13201;51.148;13.738;2023-02-26T07:35:38;0.90;99.90
25250;DHT22;13201;51.148;13.738;2023-02-26T07:38:04;1.10;99.90
25250;DHT22;13201;51.148;13.738;2023-02-26T07:40:30;1.00;99.90
25250;DHT22;13201;51.148;13.738;2023-02-26T07:42:56;1.20;99.90
25250;DHT22;13201;51.148;13.738;2023-02-26T07:45:22;1.20;99.90
25250;DHT22;13201;51.148;13.738;2023-02-26T07:47:49;1.20;99.90
25250;DHT22;13201;51.148;13.738;2023-02-26T07:50:15;1.20;99.90
25250;DHT22;13201;51.148;13.738;2023-02-26T07:52:41;1.10;99.90
25250;DHT22;13201;51.148;13.738;2023-02-26T07:55:07;1.10;99.90
25250;DHT22;13201;51.148;13.738;2023-02-26T07:57:34;1.20;99.90
25250;DHT22;13201;51.148;13.738;2023-02-26T07:59:59;1.20;99.90
25250;DHT22;13201;51.148;13.738;2023-02-26T08:02:25;1.30;99.90
25250;DHT22;13201;51.148;13.738;2023-02-26T08:04:51;1.30;99.90
25250;DHT22;13201;51.148;13.738;2023-02-26T08:07:17;1.40;99.90
25250;DHT22;13201;51.148;13.738;2023-02-26T08:09:43;1.40;99.90
25250;DHT22;13201;51.148;13.738;2023-02-26T08:12:09;1.30;99.90
25250;DHT22;13201;51.148;13.738;2023-02-26T08:14:35;1.50;99.90
25250;DHT22;13201;51.148;13.738;2023-02-26T08:17:01;1.40;99.90
25250;DHT22;13201;51.148;13.738;2023-02-26T08:19:26;1.40;99.90
25250;DHT22;13201;51.148;13.738;2023-02-26T08:21:52;1.40;99.90
25250;DHT22;13201;51.148;13.738;2023-02-26T08:24:20;1.60;99.90
25250;DHT22;13201;51.148;13.738;2023-02-26T08:26:45;1.40;99.90
25250;DHT22;13201;51.148;13.738;2023-02-26T08:29:11;1.50;99.90
25250;DHT22;13201;51.148;13.738;2023-02-26T08:31:37;1.70;99.90
25250;DHT22;13201;51.148;13.738;2023-02-26T08:34:03;1.70;99.90
25250;DHT22;13201;51.148;13.738;2023-02-26T08:36:29;1.70;99.90
25250;DHT22;13201;51.148;13.738;2023-02-26T08:38:55;1.60;99.90
25250;DHT22;13201;51.148;13.738;2023-02-26T08:41:21;1.60;99.90
25250;DHT22;13201;51.148;13.738;2023-02-26T08:43:47;1.80;99.90
25250;DHT22;13201;51.148;13.738;2023-02-26T08:46:13;1.80;99.90
25250;DHT22;13201;51.148;13.738;2023-02-26T08:48:39;1.90;99.90
25250;DHT22;13201;51.148;13.738;2023-02-26T08:51:05;1.80;99.90
25250;DHT22;13201;51.148;13.738;2023-02-26T08:53:30;1.80;99.90
25250;DHT22;13201;51.148;13.738;2023-02-26T08:55:56;1.90;99.90
25250;DHT22;13201;51.148;13.738;2023-02-26T08:58:22;1.80;99.90
25250;DHT22;13201;51.148;13.738;2023-02-26T09:00:47;1.90;99.90
25250;DHT22;13201;51.148;13.738;2023-02-26T09:03:13;2.00;99.90
25250;DHT22;13201;51.148;13.738;2023-02-26T09:05:39;1.90;99.90
25250;DHT22;13201;51.148;13.738;2023-02-26T09:08:06;2.10;99.90
25250;DHT22;13201;51.148;13.738;2023-02-26T09:10:32;2.00;99.90
25250;DHT22;13201;51.148;13.738;2023-02-26T09:12:58;2.00;99.90
25250;DHT22;13201;51.148;13.738;2023-02-26T09:15:24;2.10;99.90
25250;DHT22;13201;51.148;13.738;2023-02-26T09:17:49;2.00;99.90
25250;DHT22;13201;51.148;13.738;2023-02-26T09:20:16;2.10;99.90
25250;DHT22;13201;51.148;13.738;2023-02-26T09:22:42;2.30;99.90
25250;DHT22;13201;51.148;13.738;2023-02-26T09:25:08;2.10;99.90
25250;DHT22;13201;51.148;13.738;2023-02-26T09:27:34;2.10;99.90
25250;DHT22;13201;51.148;13.738;2023-02-26T09:30:01;2.20;99.90
25250;DHT22;13201;51.148;13.738;2023-02-26T09:32:27;2.00;99.90
25250;DHT22;13201;51.148;13.738;2023-02-26T09:34:52;2.30;99.90
25250;DHT22;13201;51.148;13.738;2023-02-26T09:37:18;2.30;99.90
25250;DHT22;13201;51.148;13.738;2023-02-26T09:39:44;2.30;99.90
25250;DHT22;13201;51.148;13.738;2023-02-26T09:44:41;2.20;99.90
25250;DHT22;13201;51.148;13.738;2023-02-26T09:47:21;2.20;99.90
25250;DHT22;13201;51.148;13.738;2023-02-26T09:50:00;2.30;99.90
25250;DHT22;13201;51.148;13.738;2023-02-26T09:52:39;2.50;99.90
25250;DHT22;13201;51.148;13.738;2023-02-26T09:55:33;2.40;99.90
25250;DHT22;13201;51.148;13.738;2023-02-26T09:58:03;2.40;99.90
25250;DHT22;13201;51.148;13.738;2023-02-26T10:00:33;2.50;99.90
25250;DHT22;13201;51.148;13.738;2023-02-26T10:03:27;2.50;99.90
25250;DHT22;13201;51.148;13.738;2023-02-26T10:06:15;2.50;99.90
25250;DHT22;13201;51.148;13.738;2023-02-26T10:12:01;2.60;99.90
25250;DHT22;13201;51.148;13.738;2023-02-26T10:17:31;2.70;99.90
25250;DHT22;13201;51.148;13.738;2023-02-26T10:20:03;2.70;99.90
25250;DHT22;13201;51.148;13.738;2023-02-26T10:22:36;2.80;99.90
25250;DHT22;13201;51.148;13.738;2023-02-26T10:25:18;2.80;99.90
25250;DHT22;13201;51.148;13.738;2023-02-26T10:31:04;2.90;99.90
25250;DHT22;13201;51.148;13.738;2023-02-26T10:36:30;2.80;99.90
25250;DHT22;13201;51.148;13.738;2023-02-26T10:39:32;3.10;99.90
25250;DHT22;13201;51.148;13.738;2023-02-26T10:42:00;2.90;99.90
25250;DHT22;13201;51.148;13.738;2023-02-26T10:44:39;3.50;99.90
25250;DHT22;13201;51.148;13.738;2023-02-26T10:47:28;3.80;99.90
25250;DHT22;13201;51.148;13.738;2023-02-26T10:50:02;3.80;99.90
25250;DHT22;13201;51.148;13.738;2023-02-26T10:52:31;3.40;99.90
25250;DHT22;13201;51.148;13.738;2023-02-26T10:57:43;3.10;99.90
25250;DHT22;13201;51.148;13.738;2023-02-26T11:00:17;3.30;99.90
25250;DHT22;13201;51.148;13.738;2023-02-26T11:02:46;3.50;99.90
25250;DHT22;13201;51.148;13.738;2023-02-26T11:05:19;3.60;99.90
25250;DHT22;13201;51.148;13.738;2023-02-26T11:07:49;3.70;99.90
25250;DHT22;13201;51.148;13.738;2023-02-26T11:10:22;3.90;99.90
25250;DHT22;13201;51.148;13.738;2023-02-26T11:12:49;4.10;99.90
25250;DHT22;13201;51.148;13.738;2023-02-26T11:15:20;4.10;99.90
25250;DHT22;13201;51.148;13.738;2023-02-26T11:17:47;4.20;99.90
25250;DHT22;13201;51.148;13.738;2023-02-26T11:20:38;4.00;99.90
25250;DHT22;13201;51.148;13.738;2023-02-26T11:23:10;4.10;99.90
25250;DHT22;13201;51.148;13.738;2023-02-26T11:25:37;3.70;99.90
25250;DHT22;13201;51.148;13.738;2023-02-26T11:28:30;4.00;99.90
25250;DHT22;13201;51.148;13.738;2023-02-26T11:30:53;3.90;99.90
25250;DHT22;13201;51.148;13.738;2023-02-26T11:33:32;3.60;99.90
25250;DHT22;13201;51.148;13.738;2023-02-26T11:36:01;3.60;99.90
25250;DHT22;13201;51.148;13.738;2023-02-26T11:38:28;3.50;99.90
25250;DHT22;13201;51.148;13.738;2023-02-26T11:40:56;3.40;99.90
25250;DHT22;13201;51.148;13.738;2023-02-26T11:43:24;3.40;99.90
25250;DHT22;13201;51.148;13.738;2023-02-26T11:46:00;3.10;99.90
25250;DHT22;13201;51.148;13.738;2023-02-26T11:48:42;3.40;99.90
25250;DHT22;13201;51.148;13.738;2023-02-26T11:51:13;3.60;99.90
25250;DHT22;13201;51.148;13.738;2023-02-26T11:53:47;3.90;99.90
25250;DHT22;13201;51.148;13.738;2023-02-26T11:56:21;4.00;99.90
25250;DHT22;13201;51.148;13.738;2023-02-26T11:58:51;3.80;99.90
25250;DHT22;13201;51.148;13.738;2023-02-26T12:01:17;3.90;99.90
25250;DHT22;13201;51.148;13.738;2023-02-26T12:03:46;3.80;99.90
25250;DHT22;13201;51.148;13.738;2023-02-26T12:06:17;3.70;99.90
25250;DHT22;13201;51.148;13.738;2023-02-26T12:08:43;3.70;99.90
25250;DHT22;13201;51.148;13.738;2023-02-26T12:33:58;3.10;99.90
25250;DHT22;13201;51.148;13.738;2023-02-26T12:45:05;3.10;99.90
25250;DHT22;13201;51.148;13.738;2023-02-26T12:50:57;3.20;99.90
25250;DHT22;13201;51.148;13.738;2023-02-26T13:09:45;3.50;99.90
25250;DHT22;13201;51.148;13.738;2023-02-26T13:20:27;3.40;99.90
25250;DHT22;13201;51.148;13.738;2023-02-26T13:25:47;3.20;99.90
25250;DHT22;13201;51.148;13.738;2023-02-26T13:31:15;2.90;99.90
25250;DHT22;13201;51.148;13.738;2023-02-26T13:33:42;3.30;99.90
25250;DHT22;13201;51.148;13.738;2023-02-26T13:36:09;3.30;99.90
25250;DHT22;13201;51.148;13.738;2023-02-26T13:42:00;3.50;99.90
25250;DHT22;13201;51.148;13.738;2023-02-26T13:44:45;3.60;99.90
25250;DHT22;13201;51.148;13.738;2023-02-26T13:47:53;3.70;99.90
25250;DHT22;13201;51.148;13.738;2023-02-26T13:52:54;3.70;99.90
25250;DHT22;13201;51.148;13.738;2023-02-26T14:03:34;3.90;99.90
25250;DHT22;13201;51.148;13.738;2023-02-26T14:06:08;3.70;99.90
25250;DHT22;13201;51.148;13.738;2023-02-26T14:16:47;3.70;99.90
25250;DHT22;13201;51.148;13.738;2023-02-26T14:24:37;4.50;99.90
25250;DHT22;13201;51.148;13.738;2023-02-26T14:29:52;4.60;99.90
25250;DHT22;13201;51.148;13.738;2023-02-26T14:32:31;4.70;99.90
25250;DHT22;13201;51.148;13.738;2023-02-26T14:35:13;4.40;99.90
25250;DHT22;13201;51.148;13.738;2023-02-26T14:37:40;4.50;99.90
25250;DHT22;13201;51.148;13.738;2023-02-26T14:40:16;5.20;99.90
25250;DHT22;13201;51.148;13.738;2023-02-26T14:42:52;5.70;99.90
25250;DHT22;13201;51.148;13.738;2023-02-26T14:45:27;6.20;99.90
25250;DHT22;13201;51.148;13.738;2023-02-26T14:47:58;6.40;99.90
25250;DHT22;13201;51.148;13.738;2023-02-26T14:50:32;6.20;99.90
25250;DHT22;13201;51.148;13.738;2023-02-26T15:03:24;4.60;99.90
25250;DHT22;13201;51.148;13.738;2023-02-26T15:06:20;4.20;99.90
25250;DHT22;13201;51.148;13.738;2023-02-26T15:17:27;4.20;99.90
25250;DHT22;13201;51.148;13.738;2023-02-26T15:25:47;3.90;99.90
25250;DHT22;13201;51.148;13.738;2023-02-26T15:28:28;3.70;99.90
25250;DHT22;13201;51.148;13.738;2023-02-26T15:30:56;3.80;99.90
25250;DHT22;13201;51.148;13.738;2023-02-26T15:33:24;4.00;99.90
25250;DHT22;13201;51.148;13.738;2023-02-26T15:35:52;4.00;99.90
25250;DHT22;13201;51.148;13.738;2023-02-26T15:38:19;3.80;99.90
25250;DHT22;13201;51.148;13.738;2023-02-26T15:40:45;3.70;99.90
25250;DHT22;13201;51.148;13.738;2023-02-26T15:43:17;3.80;99.90
25250;DHT22;13201;51.148;13.738;2023-02-26T15:45:51;3.80;99.90
25250;DHT22;13201;51.148;13.738;2023-02-26T15:48:27;3.80;99.90
25250;DHT22;13201;51.148;13.738;2023-02-26T15:50:58;3.60;99.90
25250;DHT22;13201;51.148;13.738;2023-02-26T15:53:45;3.70;99.90
25250;DHT22;13201;51.148;13.738;2023-02-26T15:56:23;3.70;99.90
25250;DHT22;13201;51.148;13.738;2023-02-26T15:58:59;3.50;99.90
25250;DHT22;13201;51.148;13.738;2023-02-26T16:01:27;3.60;99.90
25250;DHT22;13201;51.148;13.738;2023-02-26T16:04:00;3.50;99.90
25250;DHT22;13201;51.148;13.738;2023-02-26T16:06:39;3.50;99.90
25250;DHT22;13201;51.148;13.738;2023-02-26T16:09:13;3.40;99.90
25250;DHT22;13201;51.148;13.738;2023-02-26T16:11:40;3.50;99.90
25250;DHT22;13201;51.148;13.738;2023-02-26T16:14:15;3.40;99.90
25250;DHT22;13201;51.148;13.738;2023-02-26T16:16:48;3.50;99.90
25250;DHT22;13201;51.148;13.738;2023-02-26T16:19:16;3.40;99.90
25250;DHT22;13201;51.148;13.738;2023-02-26T16:21:44;3.40;99.90
25250;DHT22;13201;51.148;13.738;2023-02-26T16:24:17;3.50;99.90
25250;DHT22;13201;51.148;13.738;2023-02-26T16:26:48;3.50;99.90
25250;DHT22;13201;51.148;13.738;2023-02-26T16:29:18;3.50;99.90
25250;DHT22;13201;51.148;13.738;2023-02-26T16:31:52;3.50;99.90
25250;DHT22;13201;51.148;13.738;2023-02-26T16:36:57;3.50;99.90
25250;DHT22;13201;51.148;13.738;2023-02-26T16:39:34;3.40;99.90
25250;DHT22;13201;51.148;13.738;2023-02-26T16:42:14;3.40;99.90
25250;DHT22;13201;51.148;13.738;2023-02-26T16:44:50;3.20;99.90
25250;DHT22;13201;51.148;13.738;2023-02-26T16:47:17;3.10;99.90
25250;DHT22;13201;51.148;13.738;2023-02-26T16:49:43;3.30;99.90
25250;DHT22;13201;51.148;13.738;2023-02-26T16:52:17;3.10;99.90
25250;DHT22;13201;51.148;13.738;2023-02-26T16:54:51;3.20;99.90
25250;DHT22;13201;51.148;13.738;2023-02-26T16:57:39;3.20;99.90
25250;DHT22;13201;51.148;13.738;2023-02-26T17:00:12;3.10;99.90
25250;DHT22;13201;51.148;13.738;2023-02-26T17:02:45;3.00;99.90
25250;DHT22;13201;51.148;13.738;2023-02-26T17:05:21;3.10;99.90
25250;DHT22;13201;51.148;13.738;2023-02-26T17:07:52;3.10;99.90
25250;DHT22;13201;51.148;13.738;2023-02-26T17:10:27;3.10;99.90
25250;DHT22;13201;51.148;13.738;2023-02-26T17:13:01;3.00;99.90
25250;DHT22;13201;51.148;13.738;2023-02-26T17:15:35;3.10;99.90
25250;DHT22;13201;51.148;13.738;2023-02-26T17:18:01;2.90;99.90
25250;DHT22;13201;51.148;13.738;2023-02-26T17:20:28;2.90;99.90
25250;DHT22;13201;51.148;13.738;2023-02-26T17:22:55;2.90;99.90
25250;DHT22;13201;51.148;13.738;2023-02-26T17:25:21;2.80;99.90
25250;DHT22;13201;51.148;13.738;2023-02-26T17:27:50;2.70;99.90
25250;DHT22;13201;51.148;13.738;2023-02-26T17:30:21;2.80;99.90
25250;DHT22;13201;51.148;13.738;2023-02-26T17:32:48;2.80;99.90
25250;DHT22;13201;51.148;13.738;2023-02-26T17:35:17;2.80;99.90
25250;DHT22;13201;51.148;13.738;2023-02-26T17:37:44;2.80;99.90
25250;DHT22;13201;51.148;13.738;2023-02-26T17:40:18;3.00;99.90
25250;DHT22;13201;51.148;13.738;2023-02-26T17:42:44;3.10;99.90
25250;DHT22;13201;51.148;13.738;2023-02-26T17:45:10;3.00;99.90
25250;DHT22;13201;51.148;13.738;2023-02-26T17:47:36;3.10;99.90
25250;DHT22;13201;51.148;13.738;2023-02-26T17:50:10;3.10;99.90
25250;DHT22;13201;51.148;13.738;2023-02-26T17:52:39;3.20;99.90
25250;DHT22;13201;51.148;13.738;2023-02-26T17:55:05;3.30;99.90
25250;DHT22;13201;51.148;13.738;2023-02-26T17:57:31;3.20;99.90
25250;DHT22;13201;51.148;13.738;2023-02-26T17:59:56;3.20;99.90
25250;DHT22;13201;51.148;13.738;2023-02-26T18:02:23;3.10;99.90
25250;DHT22;13201;51.148;13.738;2023-02-26T18:04:52;3.10;99.90
25250;DHT22;13201;51.148;13.738;2023-02-26T18:07:19;3.00;99.90
25250;DHT22;13201;51.148;13.738;2023-02-26T18:09:46;2.90;99.90
25250;DHT22;13201;51.148;13.738;2023-02-26T18:12:17;2.80;99.90
25250;DHT22;13201;51.148;13.738;2023-02-26T18:14:43;2.70;99.90
25250;DHT22;13201;51.148;13.738;2023-02-26T18:17:21;2.50;99.90
25250;DHT22;13201;51.148;13.738;2023-02-26T18:19:47;2.40;99.90
25250;DHT22;13201;51.148;13.738;2023-02-26T18:22:17;2.60;99.90
25250;DHT22;13201;51.148;13.738;2023-02-26T18:24:44;2.60;99.90
25250;DHT22;13201;51.148;13.738;2023-02-26T18:27:14;2.50;99.90
25250;DHT22;13201;51.148;13.738;2023-02-26T18:29:40;2.50;99.90
25250;DHT22;13201;51.148;13.738;2023-02-26T18:32:12;2.40;99.90
25250;DHT22;13201;51.148;13.738;2023-02-26T18:34:38;2.30;99.90
25250;DHT22;13201;51.148;13.738;2023-02-26T18:37:03;2.20;99.90
25250;DHT22;13201;51.148;13.738;2023-02-26T18:39:29;2.10;99.90
25250;DHT22;13201;51.148;13.738;2023-02-26T18:41:58;2.10;99.90
25250;DHT22;13201;51.148;13.738;2023-02-26T18:44:24;2.20;99.90
25250;DHT22;13201;51.148;13.738;2023-02-26T18:46:52;2.20;99.90
25250;DHT22;13201;51.148;13.738;2023-02-26T18:49:20;2.30;99.90
25250;DHT22;13201;51.148;13.738;2023-02-26T18:51:46;2.40;99.90
25250;DHT22;13201;51.148;13.738;2023-02-26T18:54:12;2.30;99.90
25250;DHT22;13201;51.148;13.738;2023-02-26T18:56:37;2.30;99.90
25250;DHT22;13201;51.148;13.738;2023-02-26T18:59:03;2.40;99.90
25250;DHT22;13201;51.148;13.738;2023-02-26T19:01:29;2.40;99.90
25250;DHT22;13201;51.148;13.738;2023-02-26T19:03:56;2.40;99.90
25250;DHT22;13201;51.148;13.738;2023-02-26T19:06:22;2.20;99.90
25250;DHT22;13201;51.148;13.738;2023-02-26T19:08:47;2.20;99.90
25250;DHT22;13201;51.148;13.738;2023-02-26T19:11:13;2.30;99.90
25250;DHT22;13201;51.148;13.738;2023-02-26T19:13:39;2.10;99.90
25250;DHT22;13201;51.148;13.738;2023-02-26T19:16:05;2.10;99.90
25250;DHT22;13201;51.148;13.738;2023-02-26T19:18:30;2.00;99.90
25250;DHT22;13201;51.148;13.738;2023-02-26T19:20:56;2.10;99.90
25250;DHT22;13201;51.148;13.738;2023-02-26T19:23:22;2.00;99.90
25250;DHT22;13201;51.148;13.738;2023-02-26T19:25:50;1.90;99.90
25250;DHT22;13201;51.148;13.738;2023-02-26T19:28:16;1.90;99.90